Time;durP1;ratioP1;P1;durP2;ratioP2;P2;SDS_P1;SDS_P2;PMS_P1;PMS_P2;Temp;Humidity;BMP_temperature;BMP_pressure;BME280_temperature;BME280_humidity;BME280_pressure;Samples;Min_cycle;Max_cycle;Signal;HPM_P1;HPM_P2
2022/04/02 00:01:39;;;;;;;30.73;15.15;;;;;;;-0.46;100.00;93915.66;5083478;28;20417;-75
2022/04/02 00:04:06;;;;;;;32.75;14.90;;;;;;;-0.49;100.00;93911.75;5091279;28;20040;-75
2022/04/02 00:06:32;;;;;;;31.55;14.30;;;;;;;-0.50;100.00;93914.56;5077276;28;20078;-75
2022/04/02 00:08:57;;;;;;;35.40;15.07;;;;;;;-0.55;100.00;93913.50;5102078;28;20070;-75
2022/04/02 00:11:24;;;;;;;35.75;15.50;;;;;;;-0.64;100.00;93914.94;5109359;28;20048;-75
2022/04/02 00:13:49;;;;;;;34.17;15.43;;;;;;;-0.61;100.00;93906.69;5097947;28;20047;-75
2022/04/02 00:16:15;;;;;;;33.13;15.57;;;;;;;-0.63;100.00;93906.16;5095412;28;20035;-73
2022/04/02 00:18:42;;;;;;;34.70;15.82;;;;;;;-0.55;100.00;93908.34;5089888;28;20036;-75
2022/04/02 00:21:08;;;;;;;32.78;15.10;;;;;;;-0.67;100.00;93905.06;5103161;28;20512;-75
2022/04/02 00:23:40;;;;;;;33.33;15.05;;;;;;;-0.58;100.00;93898.47;5104084;28;20040;-75
2022/04/02 00:26:07;;;;;;;34.53;15.60;;;;;;;-0.68;100.00;93898.34;5098823;28;20043;-75
2022/04/02 00:28:35;;;;;;;35.50;15.63;;;;;;;-0.63;100.00;93901.00;5089570;28;20052;-74
2022/04/02 00:31:01;;;;;;;31.98;14.43;;;;;;;-0.57;100.00;93910.38;5097500;28;20043;-75
2022/04/02 00:33:27;;;;;;;35.40;15.68;;;;;;;-0.72;100.00;93902.41;5107470;28;20043;-74
2022/04/02 00:35:53;;;;;;;34.50;14.73;;;;;;;-0.65;100.00;93897.84;5096312;28;20043;-75
2022/04/02 00:38:19;;;;;;;36.28;15.70;;;;;;;-0.71;100.00;93899.59;5100599;28;20046;-75
2022/04/02 00:40:44;;;;;;;32.65;14.40;;;;;;;-0.61;100.00;93904.13;5090917;28;20048;-74
2022/04/02 00:43:27;;;;;;;31.25;14.65;;;;;;;-0.68;100.00;93908.66;5091272;28;20043;-75
2022/04/02 00:45:54;;;;;;;31.50;14.50;;;;;;;-0.67;100.00;93905.06;5089280;28;20048;-75
2022/04/02 00:48:21;;;;;;;36.30;15.25;;;;;;;-0.75;100.00;93902.88;5089475;28;20051;-74
2022/04/02 00:50:52;;;;;;;32.22;14.63;;;;;;;-0.70;100.00;93901.16;5089406;28;20040;-75
2022/04/02 00:53:18;;;;;;;29.35;13.60;;;;;;;-0.58;100.00;93897.69;5089194;28;20036;-74
2022/04/02 00:55:45;;;;;;;30.75;13.70;;;;;;;-0.57;100.00;93900.03;5092721;28;20472;-74
2022/04/02 00:58:11;;;;;;;33.80;14.85;;;;;;;-0.60;100.00;93900.50;5088443;28;20730;-75
2022/04/02 01:00:38;;;;;;;31.92;14.80;;;;;;;-0.71;100.00;93893.66;5104611;27;20541;-75
2022/04/02 01:03:03;;;;;;;33.30;14.60;;;;;;;-0.67;100.00;93894.75;5106904;27;20044;-75
2022/04/02 01:05:29;;;;;;;32.28;14.57;;;;;;;-0.76;100.00;93896.16;5088873;28;20114;-75
2022/04/02 01:07:56;;;;;;;30.13;12.82;;;;;;;-0.71;100.00;93903.97;5092612;28;20451;-75
2022/04/02 01:10:23;;;;;;;34.08;15.15;;;;;;;-0.77;100.00;93899.78;5080946;28;20431;-75
2022/04/02 01:12:49;;;;;;;38.00;15.82;;;;;;;-0.82;100.00;93902.28;5070463;28;20047;-75
2022/04/02 01:15:14;;;;;;;33.05;14.65;;;;;;;-0.78;100.00;93908.53;5088746;28;20463;-75
2022/04/02 01:17:40;;;;;;;33.28;13.20;;;;;;;-0.74;100.00;93905.22;5103482;28;20058;-75
2022/04/02 01:20:10;;;;;;;31.50;14.10;;;;;;;-0.61;100.00;93904.13;5083695;28;20531;-75
2022/04/02 01:22:36;;;;;;;31.58;14.70;;;;;;;-0.72;100.00;93903.22;5093920;28;20048;-75
2022/04/02 01:25:04;;;;;;;36.28;15.15;;;;;;;-0.77;100.00;93912.69;5088830;28;20028;-75
2022/04/02 01:27:30;;;;;;;32.67;14.07;;;;;;;-0.67;100.00;93905.06;5097226;28;20401;-75
2022/04/02 01:29:56;;;;;;;32.47;14.40;;;;;;;-0.75;100.00;93906.28;5099988;28;20043;-75
2022/04/02 01:32:22;;;;;;;32.83;14.02;;;;;;;-0.80;100.00;93921.69;5093547;28;20427;-75
2022/04/02 01:34:47;;;;;;;36.25;14.13;;;;;;;-0.90;100.00;93922.31;5106640;28;20558;-75
2022/04/02 01:37:16;;;;;;;36.55;15.00;;;;;;;-0.89;100.00;93917.94;5087817;28;20044;-74
2022/04/02 01:39:43;;;;;;;37.22;15.25;;;;;;;-0.90;100.00;93916.38;5082052;28;20070;-75
2022/04/02 01:42:08;;;;;;;37.47;15.45;;;;;;;-0.84;100.00;93919.81;5088454;28;20051;-75
2022/04/02 01:44:34;;;;;;;33.15;15.05;;;;;;;-0.90;100.00;93922.31;5090888;28;20044;-75
2022/04/02 01:47:00;;;;;;;37.58;15.45;;;;;;;-0.90;100.00;93917.16;5109292;28;20100;-75
2022/04/02 01:49:25;;;;;;;32.22;14.10;;;;;;;-0.93;100.00;93912.47;5103337;27;20066;-74
2022/04/02 01:51:51;;;;;;;34.22;14.65;;;;;;;-0.77;100.00;93920.44;5108573;27;20074;-75
2022/04/02 01:54:19;;;;;;;36.95;14.35;;;;;;;-0.82;100.00;93912.59;5077537;28;20037;-75
2022/04/02 01:56:45;;;;;;;33.35;12.98;;;;;;;-0.79;100.00;93912.13;5074511;28;20071;-74
2022/04/02 01:59:11;;;;;;;31.35;14.23;;;;;;;-0.90;100.00;93922.31;5097121;27;20070;-75
2022/04/02 02:01:36;;;;;;;33.60;13.63;;;;;;;-0.78;100.00;93924.03;5115188;27;20047;-74
2022/04/02 02:04:02;;;;;;;42.17;16.58;;;;;;;-0.93;100.00;93924.59;5098572;28;20511;-78
2022/04/02 02:06:28;;;;;;;41.80;16.33;;;;;;;-0.91;100.00;93925.91;5101720;28;20501;-76
2022/04/02 02:08:54;;;;;;;45.92;18.17;;;;;;;-1.00;100.00;93922.19;5074183;28;20051;-75
2022/04/02 02:11:21;;;;;;;45.15;17.58;;;;;;;-0.96;100.00;93918.09;5104509;28;21998;-76
2022/04/02 02:13:46;;;;;;;48.90;19.02;;;;;;;-0.91;100.00;93920.75;5086527;28;20040;-76
2022/04/02 02:16:12;;;;;;;51.25;19.10;;;;;;;-0.90;100.00;93927.47;5093765;28;20051;-76
2022/04/02 02:18:37;;;;;;;49.40;19.40;;;;;;;-0.95;100.00;93919.69;5088469;28;20046;-76
2022/04/02 02:21:03;;;;;;;49.53;18.30;;;;;;;-0.96;100.00;93927.63;5094774;28;20051;-76
2022/04/02 02:23:29;;;;;;;46.50;17.85;;;;;;;-0.97;100.00;93932.03;5081978;28;20044;-76
2022/04/02 02:25:54;;;;;;;49.97;19.23;;;;;;;-0.96;100.00;93928.44;5106501;28;20094;-75
2022/04/02 02:28:20;;;;;;;49.47;19.70;;;;;;;-0.95;100.00;93924.84;5091780;28;20141;-76
2022/04/02 02:30:46;;;;;;;48.10;17.95;;;;;;;-0.93;100.00;93927.97;5091871;28;20136;-76
2022/04/02 02:35:55;;;;;;;51.67;18.17;;;;;;;-0.93;100.00;93927.97;5091994;28;20401;-76
2022/04/02 02:38:21;;;;;;;39.97;16.25;;;;;;;-1.00;100.00;93927.34;5081401;28;20039;-74
2022/04/02 02:40:48;;;;;;;47.50;18.50;;;;;;;-0.97;100.00;93926.88;5083165;28;20493;-75
2022/04/02 02:43:15;;;;;;;47.17;18.25;;;;;;;-1.01;100.00;93925.75;5089284;28;20048;-75
2022/04/02 02:45:41;;;;;;;55.67;20.95;;;;;;;-1.04;100.00;93928.81;5087400;28;20044;-76
2022/04/02 02:48:07;;;;;;;60.90;20.63;;;;;;;-1.05;100.00;93930.63;5100482;28;20036;-75
2022/04/02 02:50:33;;;;;;;65.15;22.80;;;;;;;-1.08;100.00;93925.94;5074313;28;20044;-75
2022/04/02 02:53:00;;;;;;;54.30;19.90;;;;;;;-1.01;100.00;93930.94;5091039;28;20097;-75
2022/04/02 02:55:25;;;;;;;62.20;23.48;;;;;;;-1.10;100.00;93927.97;5072927;28;20094;-74
2022/04/02 02:57:51;;;;;;;59.35;22.88;;;;;;;-1.09;100.00;93924.38;5097157;28;20039;-74
2022/04/02 03:00:19;;;;;;;65.70;24.75;;;;;;;-1.08;100.00;93930.31;5108964;28;20035;-75
2022/04/02 03:02:45;;;;;;;66.90;24.13;;;;;;;-1.08;100.00;93932.88;5095837;28;20056;-75
2022/04/02 03:05:12;;;;;;;61.60;23.80;;;;;;;-1.12;100.00;93930.00;5074046;28;20039;-74
2022/04/02 03:07:41;;;;;;;68.75;25.52;;;;;;;-1.13;100.00;93931.00;5086700;28;20043;-75
2022/04/02 03:10:07;;;;;;;63.05;24.20;;;;;;;-1.20;100.00;93937.38;5100759;28;20608;-75
2022/04/02 03:12:33;;;;;;;69.47;26.15;;;;;;;-1.17;100.00;93942.06;5099847;28;20668;-75
2022/04/02 03:15:01;;;;;;;73.10;27.30;;;;;;;-1.25;100.00;93936.25;5099630;28;20050;-74
2022/04/02 03:17:29;;;;;;;71.35;26.70;;;;;;;-1.33;100.00;93934.06;5073079;28;20044;-75
2022/04/02 03:19:55;;;;;;;71.25;25.40;;;;;;;-1.31;100.00;93937.16;5101893;28;20062;-75
2022/04/02 03:22:21;;;;;;;64.07;23.55;;;;;;;-1.29;100.00;93940.31;5085616;28;20048;-75
2022/04/02 03:24:46;;;;;;;66.03;26.08;;;;;;;-1.27;100.00;93940.84;5091963;28;20063;-75
2022/04/02 03:27:12;;;;;;;63.15;24.33;;;;;;;-1.28;100.00;93944.47;5077820;28;20109;-75
2022/04/02 03:29:38;;;;;;;60.60;22.70;;;;;;;-1.35;100.00;93941.25;5092699;28;20097;-75
2022/04/02 03:32:04;;;;;;;63.78;25.02;;;;;;;-1.39;100.00;93940.16;5090696;28;20751;-75
2022/04/02 03:34:29;;;;;;;64.47;23.88;;;;;;;-1.34;100.00;93942.81;5081639;28;20548;-75
2022/04/02 03:36:55;;;;;;;61.08;23.92;;;;;;;-1.38;100.00;93946.88;5102029;28;20062;-75
2022/04/02 03:39:20;;;;;;;68.25;25.50;;;;;;;-1.39;100.00;93950.47;5090835;28;20107;-75
2022/04/02 03:41:46;;;;;;;64.72;24.55;;;;;;;-1.41;100.00;93953.28;5088158;28;20040;-75
2022/04/02 03:44:11;;;;;;;61.92;22.55;;;;;;;-1.42;100.00;93950.94;5102860;28;20035;-74
2022/04/02 03:49:22;;;;;;;60.97;23.33;;;;;;;-1.43;100.00;93949.38;5090926;28;20044;-75
2022/04/02 03:51:48;;;;;;;64.03;24.50;;;;;;;-1.41;100.00;93958.47;5090012;28;20054;-75
2022/04/02 03:54:13;;;;;;;64.85;24.52;;;;;;;-1.47;100.00;93961.94;5090370;28;20422;-75
2022/04/02 03:56:39;;;;;;;59.72;23.35;;;;;;;-1.46;100.00;93955.00;5084365;28;20043;-75
2022/04/02 03:59:04;;;;;;;68.15;24.13;;;;;;;-1.48;100.00;93962.19;5101006;28;20062;-75
2022/04/02 04:01:30;;;;;;;74.85;25.55;;;;;;;-1.48;100.00;93967.34;5104193;28;20065;-75
2022/04/02 04:03:55;;;;;;;62.97;23.48;;;;;;;-1.51;100.00;93968.56;5099579;28;20063;-75
2022/04/02 04:06:21;;;;;;;63.03;25.50;;;;;;;-1.47;100.00;93974.06;5083355;28;20040;-75
2022/04/02 04:08:47;;;;;;;67.22;23.65;;;;;;;-1.48;100.00;93972.50;5090268;28;20510;-75
2022/04/02 04:11:14;;;;;;;62.88;23.92;;;;;;;-1.49;100.00;93976.13;5071679;28;20497;-75
2022/04/02 04:13:40;;;;;;;70.07;27.92;;;;;;;-1.54;100.00;93973.44;5089616;28;20185;-75
2022/04/02 04:16:07;;;;;;;62.22;23.45;;;;;;;-1.51;100.00;93980.69;5098591;28;20103;-76
2022/04/02 04:18:34;;;;;;;67.53;24.40;;;;;;;-1.49;100.00;93981.28;5090517;28;20051;-75
2022/04/02 04:21:00;;;;;;;62.03;24.15;;;;;;;-1.49;100.00;93991.59;5105559;28;20036;-75
2022/04/02 04:23:26;;;;;;;63.45;24.75;;;;;;;-1.60;100.00;93995.78;5094991;28;20050;-75
2022/04/02 04:25:51;;;;;;;63.33;24.83;;;;;;;-1.61;100.00;93999.34;5085927;28;20032;-75
2022/04/02 04:28:17;;;;;;;60.47;23.20;;;;;;;-1.58;100.00;93989.38;5089453;28;20764;-75
2022/04/02 04:30:43;;;;;;;65.80;24.17;;;;;;;-1.61;100.00;94000.16;5090152;28;20051;-75
2022/04/02 04:33:10;;;;;;;64.30;22.77;;;;;;;-1.63;100.00;93997.00;5089181;28;20047;-76
2022/04/02 04:35:35;;;;;;;60.88;23.80;;;;;;;-1.67;100.00;94001.06;5078995;28;20093;-75
2022/04/02 04:38:00;;;;;;;58.88;20.80;;;;;;;-1.68;100.00;93996.94;5104210;28;20040;-75
2022/04/02 04:40:26;;;;;;;57.10;23.48;;;;;;;-1.67;100.00;94006.22;5083512;28;20687;-75
2022/04/02 04:42:51;;;;;;;50.75;22.40;;;;;;;-1.75;100.00;94014.34;5090034;28;20939;-75
2022/04/02 04:45:17;;;;;;;48.38;20.42;;;;;;;-1.79;100.00;94008.06;5109434;28;20602;-75
2022/04/02 04:47:46;;;;;;;62.97;24.58;;;;;;;-1.75;100.00;94014.34;5102108;28;20432;-76
2022/04/02 04:50:12;;;;;;;58.63;22.88;;;;;;;-1.69;100.00;94022.97;5071048;28;20051;-75
2022/04/02 04:52:38;;;;;;;59.17;23.27;;;;;;;-1.71;100.00;94020.59;5095942;28;20296;-75
2022/04/02 04:55:04;;;;;;;54.78;21.88;;;;;;;-1.84;100.00;94023.44;5071371;28;20044;-75
2022/04/02 04:57:30;;;;;;;65.47;22.58;;;;;;;-1.84;100.00;94031.16;5098291;28;20047;-75
2022/04/02 04:59:56;;;;;;;68.70;24.17;;;;;;;-1.73;100.00;94030.34;5104731;28;20057;-75
2022/04/02 05:02:22;;;;;;;61.40;22.67;;;;;;;-1.73;100.00;94027.78;5101534;28;20048;-75
2022/04/02 05:04:49;;;;;;;63.22;26.25;;;;;;;-1.86;100.00;94033.19;5108474;28;20512;-76
2022/04/02 05:07:15;;;;;;;58.58;21.45;;;;;;;-1.84;100.00;94044.06;5107125;28;20109;-76
2022/04/02 05:09:45;;;;;;;64.03;25.90;;;;;;;-1.83;100.00;94043.06;5108990;28;20047;-76
2022/04/02 05:12:12;;;;;;;52.65;20.95;;;;;;;-1.92;100.00;94045.97;5107468;28;20040;-75
2022/04/02 05:14:38;;;;;;;60.97;22.17;;;;;;;-1.91;100.00;94046.78;5092176;28;20097;-75
2022/04/02 05:17:04;;;;;;;54.95;21.23;;;;;;;-1.85;100.00;94055.38;5081612;28;20447;-76
2022/04/02 05:19:30;;;;;;;60.95;23.13;;;;;;;-1.93;100.00;94054.72;5109574;28;20044;-76
2022/04/02 05:21:55;;;;;;;58.63;23.52;;;;;;;-1.88;100.00;94061.00;5112116;28;20096;-76
2022/04/02 05:24:21;;;;;;;58.90;23.02;;;;;;;-1.90;100.00;94068.19;5094701;28;20040;-76
2022/04/02 05:26:49;;;;;;;50.88;20.85;;;;;;;-1.82;100.00;94065.25;5092969;28;20086;-75
2022/04/02 05:29:14;;;;;;;57.45;21.58;;;;;;;-1.81;100.00;94064.22;5102681;28;20524;-76
2022/04/02 05:31:43;;;;;;;55.47;20.45;;;;;;;-1.82;100.00;94073.00;5089181;28;20035;-76
2022/04/02 05:34:09;;;;;;;52.45;21.55;;;;;;;-1.88;100.00;94071.31;5108469;28;20036;-76
2022/04/02 05:36:41;;;;;;;54.92;21.50;;;;;;;-1.95;100.00;94067.06;5109611;28;20036;-76
2022/04/02 05:39:07;;;;;;;47.90;19.98;;;;;;;-1.97;100.00;94071.66;5102431;28;20036;-75
2022/04/02 05:41:32;;;;;;;52.05;19.95;;;;;;;-1.87;100.00;94085.78;5110245;28;20035;-75
2022/04/02 05:43:58;;;;;;;52.13;20.60;;;;;;;-1.88;100.00;94084.19;5092392;28;20119;-76
2022/04/02 05:46:23;;;;;;;54.20;22.90;;;;;;;-1.94;100.00;94088.47;5093234;28;20809;-75
2022/04/02 05:48:49;;;;;;;50.80;21.33;;;;;;;-1.96;100.00;94088.69;5093193;28;20455;-75
2022/04/02 05:51:15;;;;;;;57.50;21.38;;;;;;;-1.85;100.00;94096.63;5103031;28;20123;-75
2022/04/02 05:53:41;;;;;;;54.25;20.33;;;;;;;-1.95;100.00;94098.00;5109475;28;20043;-75
2022/04/02 05:56:06;;;;;;;54.15;20.38;;;;;;;-2.05;100.00;94097.78;5098273;28;20104;-76
2022/04/02 05:58:32;;;;;;;64.45;21.27;;;;;;;-1.99;100.00;94096.09;5101392;28;20107;-76
2022/04/02 06:00:58;;;;;;;56.28;22.55;;;;;;;-1.98;100.00;94102.84;5101885;28;20040;-75
2022/04/02 06:03:23;;;;;;;68.63;24.77;;;;;;;-2.04;100.00;94114.84;5104367;28;20550;-75
2022/04/02 06:05:50;;;;;;;62.88;24.02;;;;;;;-2.05;100.00;94113.25;5094101;28;20048;-76
2022/04/02 06:08:16;;;;;;;68.95;22.85;;;;;;;-2.05;100.00;94113.25;5104904;28;20039;-76
2022/04/02 06:10:45;;;;;;;53.80;20.75;;;;;;;-1.95;100.00;94113.47;5094756;28;20485;-76
2022/04/02 06:13:11;;;;;;;58.90;22.13;;;;;;;-1.89;100.00;94123.91;5092476;28;20073;-76
2022/04/02 06:15:37;;;;;;;53.30;21.30;;;;;;;-2.00;100.00;94126.25;5097969;28;20443;-76
2022/04/02 06:18:03;;;;;;;66.20;22.42;;;;;;;-1.95;100.00;94134.09;5098343;28;20047;-76
2022/04/02 06:20:28;;;;;;;59.28;22.08;;;;;;;-2.00;100.00;94128.03;5101211;28;20044;-75
2022/04/02 06:22:54;;;;;;;61.75;23.00;;;;;;;-1.95;100.00;94128.94;5087647;28;20051;-76
2022/04/02 06:25:20;;;;;;;59.92;22.52;;;;;;;-1.90;100.00;94135.22;5086607;28;20390;-76
2022/04/02 06:27:47;;;;;;;57.17;22.27;;;;;;;-1.94;100.00;94135.69;5108287;28;20051;-76
2022/04/02 06:30:15;;;;;;;57.85;22.35;;;;;;;-1.96;100.00;94142.84;5092597;28;20047;-76
2022/04/02 06:32:41;;;;;;;58.53;21.10;;;;;;;-1.96;100.00;94155.72;5106958;28;20051;-76
2022/04/02 06:35:07;;;;;;;61.15;21.98;;;;;;;-1.97;100.00;94151.59;5103323;28;20032;-75
2022/04/02 06:37:38;;;;;;;60.05;23.13;;;;;;;-1.92;100.00;94159.44;5093158;28;20091;-76
2022/04/02 06:40:05;;;;;;;56.40;21.20;;;;;;;-1.96;100.00;94160.88;5108480;28;20051;-76
2022/04/02 06:42:31;;;;;;;60.40;22.60;;;;;;;-1.95;100.00;94159.09;5080890;28;20077;-73
2022/04/02 06:44:57;;;;;;;56.97;21.02;;;;;;;-1.99;100.00;94161.34;5101688;28;20101;-76
2022/04/02 06:47:31;;;;;;;53.17;22.20;;;;;;;-1.94;100.00;94166.63;5102643;28;20047;-76
2022/04/02 06:49:58;;;;;;;60.60;21.93;;;;;;;-1.89;100.00;94167.75;5098319;28;20096;-75
2022/04/02 06:52:24;;;;;;;53.95;21.23;;;;;;;-1.88;100.00;94170.09;5079752;28;20523;-74
2022/04/02 06:54:50;;;;;;;54.40;24.10;;;;;;;-1.95;100.00;94170.19;5097016;28;20048;-77
2022/04/02 06:57:20;;;;;;;54.30;22.52;;;;;;;-1.93;100.00;94170.75;5093789;28;20036;-77
2022/04/02 06:59:46;;;;;;;53.53;20.10;;;;;;;-1.73;100.00;94172.22;5101999;28;20043;-78
2022/04/02 07:02:12;;;;;;;59.20;21.63;;;;;;;-1.81;100.00;94175.94;5076839;28;20043;-76
2022/04/02 07:04:38;;;;;;;58.90;23.58;;;;;;;-1.90;100.00;94189.38;5103499;28;20182;-76
2022/04/02 07:07:04;;;;;;;56.50;21.88;;;;;;;-1.82;100.00;94194.19;5101176;28;20488;-75
2022/04/02 07:09:30;;;;;;;60.63;22.85;;;;;;;-1.81;100.00;94195.75;5107751;27;20044;-76
2022/04/02 07:11:55;;;;;;;62.85;21.83;;;;;;;-1.75;100.00;94189.72;5090145;28;20445;-74
2022/04/02 07:14:22;;;;;;;68.82;23.92;;;;;;;-1.82;100.00;94204.53;5100841;28;20081;-75
2022/04/02 07:16:48;;;;;;;63.72;23.00;;;;;;;-1.85;100.00;94210.09;5081643;28;20036;-73
2022/04/02 07:19:18;;;;;;;53.65;21.63;;;;;;;-1.77;100.00;94202.84;5101671;28;20634;-74
2022/04/02 07:21:46;;;;;;;54.60;21.55;;;;;;;-1.79;100.00;94209.22;5094080;28;20047;-76
2022/04/02 07:24:12;;;;;;;58.92;21.75;;;;;;;-1.67;100.00;94207.41;5098205;28;20485;-76
2022/04/02 07:26:38;;;;;;;63.17;23.10;;;;;;;-1.79;100.00;94222.13;5092724;28;20042;-73
2022/04/02 07:29:05;;;;;;;63.45;24.05;;;;;;;-1.76;100.00;94221.66;5078534;28;20040;-74
2022/04/02 07:31:31;;;;;;;63.50;23.27;;;;;;;-1.69;100.00;94224.94;5097158;28;20498;-74
2022/04/02 07:33:56;;;;;;;64.53;22.45;;;;;;;-1.78;100.00;94221.09;5102090;28;20126;-73
2022/04/02 07:36:46;;;;;;;64.35;24.02;;;;;;;-1.75;100.00;94238.72;5105342;28;20054;-73
2022/04/02 07:39:12;;;;;;;62.47;21.00;;;;;;;-1.89;100.00;94239.94;5090385;28;20059;-76
2022/04/02 07:42:13;;;;;;;59.05;23.17;;;;;;;-1.88;100.00;94241.50;5095469;28;20127;-75
2022/04/02 07:45:14;;;;;;;60.58;23.02;;;;;;;-1.79;100.00;94248.69;5102458;28;20406;-74
2022/04/02 07:47:48;;;;;;;69.70;21.70;;;;;;;-1.75;100.00;94247.25;5063687;28;20526;-75
2022/04/02 07:50:15;;;;;;;61.88;23.13;;;;;;;-1.74;100.00;94253.16;5082858;28;20044;-75
2022/04/02 07:52:45;;;;;;;55.28;20.85;;;;;;;-1.52;100.00;94255.19;5090084;28;20048;-75
2022/04/02 07:55:12;;;;;;;66.50;22.38;;;;;;;-1.52;100.00;94260.34;5096232;28;20042;-77
2022/04/02 07:57:44;;;;;;;63.83;22.30;;;;;;;-1.63;100.00;94264.53;5099943;28;20074;-75
2022/04/02 08:00:12;;;;;;;56.42;20.48;;;;;;;-1.53;100.00;94264.75;5107675;28;20108;-73
2022/04/02 08:02:42;;;;;;;65.65;21.42;;;;;;;-1.62;100.00;94261.72;5091578;28;20035;-77
2022/04/02 08:05:19;;;;;;;57.53;21.50;;;;;;;-1.52;100.00;94266.31;5084241;28;20166;-78
2022/04/02 08:07:52;;;;;;;56.42;20.65;;;;;;;-1.46;100.00;94275.75;5097896;27;20039;-78
2022/04/02 08:10:19;;;;;;;57.08;21.10;;;;;;;-1.41;100.00;94272.47;5106270;27;20040;-75
2022/04/02 08:12:45;;;;;;;56.70;19.80;;;;;;;-1.43;100.00;94264.19;5091743;28;20039;-75
2022/04/02 08:15:16;;;;;;;55.72;22.40;;;;;;;-1.41;100.00;94272.47;5095643;28;20043;-75
2022/04/02 08:17:44;;;;;;;59.47;20.50;;;;;;;-1.39;100.00;94280.81;5096647;27;20035;-74
2022/04/02 08:20:10;;;;;;;65.18;22.90;;;;;;;-1.32;100.00;94281.47;5115643;27;20047;-75
2022/04/02 08:22:36;;;;;;;56.05;21.73;;;;;;;-1.09;100.00;94287.66;5098087;28;20074;-74
2022/04/02 08:25:03;;;;;;;61.25;23.38;;;;;;;-1.22;100.00;94292.03;5101431;27;20043;-76
2022/04/02 08:27:41;;;;;;;60.80;20.40;;;;;;;-1.28;100.00;94292.94;5097653;27;20039;-75
2022/04/02 08:30:13;;;;;;;54.20;19.20;;;;;;;-1.34;100.00;94298.97;5110321;28;20084;-76
2022/04/02 08:32:38;;;;;;;59.00;22.50;;;;;;;-1.18;100.00;94307.06;5110954;28;20131;-75
2022/04/02 08:35:11;;;;;;;51.00;19.48;;;;;;;-1.33;100.00;94294.59;5091389;28;20138;-77
2022/04/02 08:37:37;;;;;;;53.05;20.52;;;;;;;-1.33;100.00;94300.53;5103364;27;20047;-75
2022/04/02 08:40:08;;;;;;;47.38;19.45;;;;;;;-1.38;100.00;94307.38;5112825;28;20043;-74
2022/04/02 08:42:56;;;;;;;46.15;18.30;;;;;;;-1.46;100.00;94311.09;5104058;27;20093;-75
2022/04/02 08:45:30;;;;;;;44.47;17.70;;;;;;;-1.35;100.00;94318.06;5104344;27;20055;-75
2022/04/02 08:48:20;;;;;;;36.17;16.55;;;;;;;-1.49;100.00;94319.28;5087226;28;20400;-75
2022/04/02 08:50:48;;;;;;;45.90;18.38;;;;;;;-1.28;100.00;94318.75;5106077;28;20484;-75
2022/04/02 08:53:18;;;;;;;42.40;18.45;;;;;;;-1.38;100.00;94323.66;5084247;28;20564;-75
2022/04/02 08:56:01;;;;;;;41.28;17.75;;;;;;;-1.33;100.00;94326.34;5103924;28;20107;-77
2022/04/02 08:58:44;;;;;;;53.70;20.98;;;;;;;-1.31;100.00;94337.22;5096615;28;20065;-77
2022/04/02 09:01:11;;;;;;;42.92;17.23;;;;;;;-1.37;100.00;94345.88;5110733;28;20152;-76
2022/04/02 09:03:39;;;;;;;52.95;21.13;;;;;;;-1.28;100.00;94349.72;5104991;28;20416;-77
2022/04/02 09:06:14;;;;;;;56.05;19.48;;;;;;;-1.16;100.00;94352.28;5089105;28;20120;-77
2022/04/02 09:09:02;;;;;;;46.88;17.65;;;;;;;-1.13;100.00;94345.91;5096095;28;20055;-74
2022/04/02 09:11:36;;;;;;;52.88;20.90;;;;;;;-1.02;100.00;94358.03;5086075;28;20040;-74
2022/04/02 09:14:16;;;;;;;62.08;23.27;;;;;;;-0.89;100.00;94360.38;5105483;28;20040;-76
2022/04/02 09:17:01;;;;;;;48.28;17.52;;;;;;;-0.79;100.00;94367.56;5104095;28;20062;-76
2022/04/02 09:19:36;;;;;;;44.10;18.48;;;;;;;-0.82;100.00;94367.22;5097514;28;20061;-76
2022/04/02 09:22:35;;;;;;;48.30;20.05;;;;;;;-0.88;100.00;94369.72;5104114;28;20040;-82
2022/04/02 09:25:30;;;;;;;56.42;18.90;;;;;;;-0.94;100.00;94370.59;5090745;28;20044;-76
2022/04/02 09:28:14;;;;;;;50.17;18.25;;;;;;;-0.90;100.00;94370.94;5077232;28;20676;-77
2022/04/02 09:31:15;;;;;;;46.17;18.70;;;;;;;-0.82;100.00;94374.97;5080836;28;20047;-77
2022/04/02 09:34:29;;;;;;;35.30;15.95;;;;;;;-0.66;100.00;94376.88;5058615;28;20086;-77
2022/04/02 09:37:34;;;;;;;48.08;17.88;;;;;;;-0.71;100.00;94384.50;5108616;28;20047;-77
2022/04/02 09:40:10;;;;;;;45.13;17.40;;;;;;;-0.71;100.00;94379.34;5076392;28;20047;-75
2022/04/02 09:42:44;;;;;;;44.33;16.52;;;;;;;-0.73;100.00;94386.53;5093539;28;20044;-78
2022/04/02 09:45:13;;;;;;;44.13;17.40;;;;;;;-0.80;100.00;94388.47;5090483;28;20421;-76
2022/04/02 09:47:50;;;;;;;45.90;19.10;;;;;;;-0.70;100.00;94380.94;5077471;28;20044;-74
2022/04/02 09:50:21;;;;;;;48.90;21.73;;;;;;;-0.91;100.00;94390.78;5104978;28;20123;-79
2022/04/02 09:52:58;;;;;;;48.38;18.85;;;;;;;-1.01;100.00;94385.41;5082130;28;20409;-76
2022/04/02 09:55:40;;;;;;;45.55;18.50;;;;;;;-0.93;100.00;94387.66;5096260;28;20224;-76
2022/04/02 09:58:19;;;;;;;45.00;18.13;;;;;;;-0.90;100.00;94387.22;5106675;28;20040;-75
2022/04/02 10:01:05;;;;;;;40.17;18.00;;;;;;;-0.88;100.00;94390.38;5095494;28;20117;-76
2022/04/02 10:03:31;;;;;;;42.05;18.52;;;;;;;-0.90;100.00;94392.38;5086033;28;20046;-76
2022/04/02 10:06:16;;;;;;;40.72;17.30;;;;;;;-0.85;100.00;94398.66;5089999;28;20107;-78
2022/04/02 10:09:00;;;;;;;40.88;17.63;;;;;;;-0.99;100.00;94409.22;5110914;28;20044;-76
2022/04/02 10:11:28;;;;;;;40.03;17.63;;;;;;;-1.05;100.00;94404.94;5101530;28;20047;-73
2022/04/02 10:14:01;;;;;;;39.05;16.75;;;;;;;-1.32;100.00;94415.69;5100046;28;20036;-79
2022/04/02 10:16:28;;;;;;;45.60;18.20;;;;;;;-1.33;100.00;94414.09;5082678;28;20060;-77
2022/04/02 10:18:56;;;;;;;46.47;18.27;;;;;;;-1.18;100.00;94421.41;5110243;28;20039;-73
2022/04/02 10:21:22;;;;;;;42.38;19.00;;;;;;;-1.43;100.00;94424.19;5088278;28;20089;-77
2022/04/02 10:24:06;;;;;;;45.17;20.00;;;;;;;-1.41;100.00;94422.97;5102872;28;20067;-81
2022/04/02 10:26:39;;;;;;;43.10;19.10;;;;;;;-1.30;100.00;94428.38;5089320;28;20118;-83
2022/04/02 10:29:38;;;;;;;44.00;18.98;;;;;;;-1.13;100.00;94429.31;5082123;28;20083;-75
2022/04/02 10:32:37;;;;;;;43.85;18.45;;;;;;;-1.27;100.00;94433.88;5092918;28;20417;-74
2022/04/02 10:35:04;;;;;;;45.60;19.23;;;;;;;-1.26;100.00;94438.03;5081389;28;20601;-76
2022/04/02 10:37:55;;;;;;;45.53;19.73;;;;;;;-1.30;100.00;94434.31;5078193;28;20043;-75
2022/04/02 10:40:25;;;;;;;48.28;19.13;;;;;;;-1.14;100.00;94442.44;5076075;28;20665;-76
2022/04/02 10:42:53;;;;;;;52.85;19.65;;;;;;;-0.92;100.00;94440.91;5105605;28;20039;-76
2022/04/02 10:45:20;;;;;;;64.20;21.50;;;;;;;-0.73;100.00;94440.81;5090230;28;20035;-76
2022/04/02 10:48:11;;;;;;;42.35;18.15;;;;;;;-0.86;100.00;94441.81;5091713;28;20046;-77
2022/04/02 10:50:38;;;;;;;42.95;18.38;;;;;;;-0.77;100.00;94445.63;5083074;28;20059;-77
2022/04/02 10:53:05;;;;;;;42.10;19.70;;;;;;;-0.63;100.00;94447.97;5102367;28;20059;-75
2022/04/02 10:55:32;;;;;;;43.85;17.65;;;;;;;-0.74;100.00;94452.13;5098143;28;22243;-76
2022/04/02 10:58:02;;;;;;;43.60;18.63;;;;;;;-0.47;100.00;94443.94;5100020;28;20043;-76
2022/04/02 11:00:29;;;;;;;44.67;20.15;;;;;;;-0.53;100.00;94454.16;5103515;28;20408;-76
2022/04/02 11:03:02;;;;;;;48.08;19.85;;;;;;;-0.71;100.00;94456.84;5101511;28;20047;-79
2022/04/02 11:05:34;;;;;;;54.45;20.90;;;;;;;-0.66;100.00;94459.56;5083855;28;20044;-80
2022/04/02 11:08:05;;;;;;;45.50;20.17;;;;;;;-0.87;100.00;94453.91;5109978;28;20095;-78
2022/04/02 11:10:34;;;;;;;45.83;20.73;;;;;;;-0.84;100.00;94467.41;5088445;28;20039;-77
2022/04/02 11:13:02;;;;;;;46.30;20.40;;;;;;;-0.73;100.00;94464.06;5109967;28;20122;-77
2022/04/02 11:15:27;;;;;;;53.22;23.23;;;;;;;-1.12;100.00;94471.38;5099793;28;20101;-76
2022/04/02 11:17:57;;;;;;;41.25;20.05;;;;;;;-1.11;100.00;94472.97;5097222;28;20040;-77
2022/04/02 11:20:25;;;;;;;54.70;23.88;;;;;;;-1.00;100.00;94479.97;5076030;28;20044;-77
2022/04/02 11:23:02;;;;;;;44.03;21.40;;;;;;;-0.96;100.00;94483.69;5086828;28;20071;-77
2022/04/02 11:25:31;;;;;;;57.00;21.58;;;;;;;-0.56;100.00;94485.63;5087673;28;20044;-79